Poltava, Ukraine
Current Conditions -  °F | °C
As of 6:00 PM on Friday 24 Oct 2014 (Local Time) from UKHH Reporting Station
Clear Clear  
Wind Chill: 20°   Ceiling: Unl
Heat Index: 28°   Visibility: 6mi
Dew Point: 14°   Wind: 9mph
Humidity: 55%   Direction: 30°NNE
Pressure: 30.45"   Gusts: NA
Location:  49.58°N, 34.57°E
Report Text: UKHH 241500Z 03004MPS CAVOK M02/M10 Q1031 070///65 NOSIG
Loading
Personal Weather Stations






























Interactive Weather Map
Tropical Storm Tracking
New forecast layout! Learn more

10-Day Weather Forecast

Advertisements
Track Severe Weather on mobile